sensor_id;sensor_type;location;lat;lon;timestamp;temperature;humidity
74376;HTU21D;62812;55.188;61.302;2023-08-12T00:01:07;15.44;69.55
74376;HTU21D;62812;55.188;61.302;2023-08-12T00:03:34;15.49;69.28
74376;HTU21D;62812;55.188;61.302;2023-08-12T00:06:00;15.40;69.48
74376;HTU21D;62812;55.188;61.302;2023-08-12T00:08:28;15.33;69.81
74376;HTU21D;62812;55.188;61.302;2023-08-12T00:10:55;15.33;70.11
74376;HTU21D;62812;55.188;61.302;2023-08-12T00:13:21;15.32;69.65
74376;HTU21D;62812;55.188;61.302;2023-08-12T00:15:52;15.28;69.54
74376;HTU21D;62812;55.188;61.302;2023-08-12T00:18:21;15.27;70.59
74376;HTU21D;62812;55.188;61.302;2023-08-12T00:20:48;15.25;70.39
74376;HTU21D;62812;55.188;61.302;2023-08-12T00:23:15;15.21;70.87
74376;HTU21D;62812;55.188;61.302;2023-08-12T00:25:41;15.22;70.45
74376;HTU21D;62812;55.188;61.302;2023-08-12T00:28:08;15.22;70.44
74376;HTU21D;62812;55.188;61.302;2023-08-12T00:30:36;15.22;69.55
74376;HTU21D;62812;55.188;61.302;2023-08-12T00:33:03;15.21;70.20
74376;HTU21D;62812;55.188;61.302;2023-08-12T00:35:31;15.26;69.88
74376;HTU21D;62812;55.188;61.302;2023-08-12T00:37:57;15.28;70.07
74376;HTU21D;62812;55.188;61.302;2023-08-12T00:40:26;15.28;70.21
74376;HTU21D;62812;55.188;61.302;2023-08-12T00:42:52;15.29;70.09
74376;HTU21D;62812;55.188;61.302;2023-08-12T00:45:19;15.29;70.45
74376;HTU21D;62812;55.188;61.302;2023-08-12T00:47:46;15.26;70.35
74376;HTU21D;62812;55.188;61.302;2023-08-12T00:50:14;15.28;70.13
74376;HTU21D;62812;55.188;61.302;2023-08-12T00:52:43;15.23;70.52
74376;HTU21D;62812;55.188;61.302;2023-08-12T00:55:10;15.23;70.42
74376;HTU21D;62812;55.188;61.302;2023-08-12T00:57:37;15.25;70.42
74376;HTU21D;62812;55.188;61.302;2023-08-12T01:00:05;15.24;70.31
74376;HTU21D;62812;55.188;61.302;2023-08-12T01:02:34;15.31;70.07
74376;HTU21D;62812;55.188;61.302;2023-08-12T01:05:01;15.29;69.97
74376;HTU21D;62812;55.188;61.302;2023-08-12T01:07:27;15.41;70.06
74376;HTU21D;62812;55.188;61.302;2023-08-12T01:09:55;15.34;70.44
74376;HTU21D;62812;55.188;61.302;2023-08-12T01:12:27;15.33;70.38
74376;HTU21D;62812;55.188;61.302;2023-08-12T01:15:07;15.40;70.11
74376;HTU21D;62812;55.188;61.302;2023-08-12T01:17:36;15.37;70.08
74376;HTU21D;62812;55.188;61.302;2023-08-12T01:20:06;15.51;70.16
74376;HTU21D;62812;55.188;61.302;2023-08-12T01:22:37;15.59;70.03
74376;HTU21D;62812;55.188;61.302;2023-08-12T01:25:08;15.72;69.72
74376;HTU21D;62812;55.188;61.302;2023-08-12T01:27:36;15.98;68.85
74376;HTU21D;62812;55.188;61.302;2023-08-12T01:30:03;16.28;68.67
74376;HTU21D;62812;55.188;61.302;2023-08-12T01:32:37;16.50;67.68
74376;HTU21D;62812;55.188;61.302;2023-08-12T01:35:09;16.84;66.53
74376;HTU21D;62812;55.188;61.302;2023-08-12T01:37:38;17.03;65.27
74376;HTU21D;62812;55.188;61.302;2023-08-12T01:40:07;17.26;64.69
74376;HTU21D;62812;55.188;61.302;2023-08-12T01:42:36;17.53;63.45
74376;HTU21D;62812;55.188;61.302;2023-08-12T01:45:04;17.77;62.73
74376;HTU21D;62812;55.188;61.302;2023-08-12T01:47:31;17.97;61.68
74376;HTU21D;62812;55.188;61.302;2023-08-12T01:50:01;18.12;61.44
74376;HTU21D;62812;55.188;61.302;2023-08-12T01:52:30;18.11;60.82
74376;HTU21D;62812;55.188;61.302;2023-08-12T01:54:56;18.27;61.83
74376;HTU21D;62812;55.188;61.302;2023-08-12T01:57:24;18.41;60.22
74376;HTU21D;62812;55.188;61.302;2023-08-12T01:59:51;18.65;59.17
74376;HTU21D;62812;55.188;61.302;2023-08-12T02:02:18;18.72;59.22
74376;HTU21D;62812;55.188;61.302;2023-08-12T02:04:45;18.93;58.32
74376;HTU21D;62812;55.188;61.302;2023-08-12T02:07:12;18.99;59.19
74376;HTU21D;62812;55.188;61.302;2023-08-12T02:09:39;18.98;58.36
74376;HTU21D;62812;55.188;61.302;2023-08-12T02:12:06;19.12;57.91
74376;HTU21D;62812;55.188;61.302;2023-08-12T02:14:34;19.30;57.91
74376;HTU21D;62812;55.188;61.302;2023-08-12T02:17:02;19.53;58.06
74376;HTU21D;62812;55.188;61.302;2023-08-12T02:19:32;19.60;56.26
74376;HTU21D;62812;55.188;61.302;2023-08-12T02:21:59;19.66;56.05
74376;HTU21D;62812;55.188;61.302;2023-08-12T02:24:26;19.79;55.80
74376;HTU21D;62812;55.188;61.302;2023-08-12T02:26:52;19.98;55.58
74376;HTU21D;62812;55.188;61.302;2023-08-12T02:29:19;20.05;55.58
74376;HTU21D;62812;55.188;61.302;2023-08-12T02:31:47;20.25;54.84
74376;HTU21D;62812;55.188;61.302;2023-08-12T02:34:13;20.53;55.24
74376;HTU21D;62812;55.188;61.302;2023-08-12T02:36:40;20.66;53.94
74376;HTU21D;62812;55.188;61.302;2023-08-12T02:39:07;20.88;54.87
74376;HTU21D;62812;55.188;61.302;2023-08-12T02:41:33;21.21;52.72
74376;HTU21D;62812;55.188;61.302;2023-08-12T02:44:00;21.32;52.40
74376;HTU21D;62812;55.188;61.302;2023-08-12T02:46:26;21.46;52.77
74376;HTU21D;62812;55.188;61.302;2023-08-12T02:48:55;21.57;51.50
74376;HTU21D;62812;55.188;61.302;2023-08-12T02:51:21;21.69;52.24
74376;HTU21D;62812;55.188;61.302;2023-08-12T02:53:50;21.98;50.58
74376;HTU21D;62812;55.188;61.302;2023-08-12T02:56:17;22.03;50.93
74376;HTU21D;62812;55.188;61.302;2023-08-12T02:58:43;22.24;49.59
74376;HTU21D;62812;55.188;61.302;2023-08-12T03:01:10;22.26;50.35
74376;HTU21D;62812;55.188;61.302;2023-08-12T03:03:36;22.56;48.24
74376;HTU21D;62812;55.188;61.302;2023-08-12T03:06:05;22.57;51.96
74376;HTU21D;62812;55.188;61.302;2023-08-12T03:08:32;22.77;47.92
74376;HTU21D;62812;55.188;61.302;2023-08-12T03:11:01;22.97;47.90
74376;HTU21D;62812;55.188;61.302;2023-08-12T03:13:29;22.96;50.17
74376;HTU21D;62812;55.188;61.302;2023-08-12T03:15:56;23.01;46.72
74376;HTU21D;62812;55.188;61.302;2023-08-12T03:18:22;23.21;45.93
74376;HTU21D;62812;55.188;61.302;2023-08-12T03:20:49;23.27;46.70
74376;HTU21D;62812;55.188;61.302;2023-08-12T03:23:17;23.31;47.33
74376;HTU21D;62812;55.188;61.302;2023-08-12T03:25:46;23.50;45.85
74376;HTU21D;62812;55.188;61.302;2023-08-12T03:28:13;23.72;46.97
74376;HTU21D;62812;55.188;61.302;2023-08-12T03:30:40;24.03;43.13
74376;HTU21D;62812;55.188;61.302;2023-08-12T03:33:07;24.33;44.84
74376;HTU21D;62812;55.188;61.302;2023-08-12T03:35:36;24.62;43.08
74376;HTU21D;62812;55.188;61.302;2023-08-12T03:38:05;24.66;45.55
74376;HTU21D;62812;55.188;61.302;2023-08-12T03:40:32;24.91;41.60
74376;HTU21D;62812;55.188;61.302;2023-08-12T03:43:06;24.86;42.16
74376;HTU21D;62812;55.188;61.302;2023-08-12T03:45:33;25.09;43.11
74376;HTU21D;62812;55.188;61.302;2023-08-12T03:48:00;25.04;40.95
74376;HTU21D;62812;55.188;61.302;2023-08-12T03:50:27;25.04;43.91
74376;HTU21D;62812;55.188;61.302;2023-08-12T03:52:54;25.23;40.42
74376;HTU21D;62812;55.188;61.302;2023-08-12T03:55:21;25.37;42.08
74376;HTU21D;62812;55.188;61.302;2023-08-12T03:57:49;25.49;39.08
74376;HTU21D;62812;55.188;61.302;2023-08-12T04:00:17;25.23;41.27
74376;HTU21D;62812;55.188;61.302;2023-08-12T04:02:46;25.32;41.94
74376;HTU21D;62812;55.188;61.302;2023-08-12T04:05:15;25.63;41.48
74376;HTU21D;62812;55.188;61.302;2023-08-12T04:07:42;25.71;37.91
74376;HTU21D;62812;55.188;61.302;2023-08-12T04:10:10;25.80;37.77
74376;HTU21D;62812;55.188;61.302;2023-08-12T04:12:40;25.89;35.63
74376;HTU21D;62812;55.188;61.302;2023-08-12T04:15:12;26.06;38.49
74376;HTU21D;62812;55.188;61.302;2023-08-12T04:17:39;26.08;36.53
74376;HTU21D;62812;55.188;61.302;2023-08-12T04:20:08;26.04;37.37
74376;HTU21D;62812;55.188;61.302;2023-08-12T04:22:35;25.91;37.46
74376;HTU21D;62812;55.188;61.302;2023-08-12T04:25:02;25.95;34.68
74376;HTU21D;62812;55.188;61.302;2023-08-12T04:27:29;25.90;36.85
74376;HTU21D;62812;55.188;61.302;2023-08-12T04:29:56;25.48;33.26
74376;HTU21D;62812;55.188;61.302;2023-08-12T04:32:27;25.21;34.76
74376;HTU21D;62812;55.188;61.302;2023-08-12T04:34:55;24.71;36.46
74376;HTU21D;62812;55.188;61.302;2023-08-12T04:37:22;24.99;34.55
74376;HTU21D;62812;55.188;61.302;2023-08-12T04:39:50;24.91;35.84
74376;HTU21D;62812;55.188;61.302;2023-08-12T04:42:17;24.56;36.34
74376;HTU21D;62812;55.188;61.302;2023-08-12T04:44:43;24.54;35.16
74376;HTU21D;62812;55.188;61.302;2023-08-12T04:47:11;24.60;37.17
74376;HTU21D;62812;55.188;61.302;2023-08-12T04:49:44;24.76;40.01
74376;HTU21D;62812;55.188;61.302;2023-08-12T04:52:10;24.86;38.28
74376;HTU21D;62812;55.188;61.302;2023-08-12T04:54:39;25.15;36.11
74376;HTU21D;62812;55.188;61.302;2023-08-12T04:57:09;25.23;33.18
74376;HTU21D;62812;55.188;61.302;2023-08-12T04:59:36;25.25;37.41
74376;HTU21D;62812;55.188;61.302;2023-08-12T05:02:05;24.94;35.29
74376;HTU21D;62812;55.188;61.302;2023-08-12T05:04:31;25.08;32.82
74376;HTU21D;62812;55.188;61.302;2023-08-12T05:07:00;24.91;37.27
74376;HTU21D;62812;55.188;61.302;2023-08-12T05:09:27;25.04;32.60
74376;HTU21D;62812;55.188;61.302;2023-08-12T05:11:57;25.04;35.46
74376;HTU21D;62812;55.188;61.302;2023-08-12T05:14:23;25.01;31.85
74376;HTU21D;62812;55.188;61.302;2023-08-12T05:16:50;24.92;32.38
74376;HTU21D;62812;55.188;61.302;2023-08-12T05:19:17;25.15;31.08
74376;HTU21D;62812;55.188;61.302;2023-08-12T05:21:43;24.95;29.22
74376;HTU21D;62812;55.188;61.302;2023-08-12T05:24:17;24.48;29.77
74376;HTU21D;62812;55.188;61.302;2023-08-12T05:26:46;24.33;31.35
74376;HTU21D;62812;55.188;61.302;2023-08-12T05:29:16;24.29;30.90
74376;HTU21D;62812;55.188;61.302;2023-08-12T05:31:43;24.53;32.69
74376;HTU21D;62812;55.188;61.302;2023-08-12T05:34:09;24.36;30.55
74376;HTU21D;62812;55.188;61.302;2023-08-12T05:36:37;24.21;29.60
74376;HTU21D;62812;55.188;61.302;2023-08-12T05:39:04;23.89;30.16
74376;HTU21D;62812;55.188;61.302;2023-08-12T05:41:34;23.76;29.99
74376;HTU21D;62812;55.188;61.302;2023-08-12T05:44:20;23.51;31.03
74376;HTU21D;62812;55.188;61.302;2023-08-12T05:46:51;23.73;30.71
74376;HTU21D;62812;55.188;61.302;2023-08-12T05:49:24;23.69;32.02
74376;HTU21D;62812;55.188;61.302;2023-08-12T05:52:09;23.94;33.47
74376;HTU21D;62812;55.188;61.302;2023-08-12T05:59:44;24.06;33.97
74376;HTU21D;62812;55.188;61.302;2023-08-12T06:02:32;24.12;30.91
74376;HTU21D;62812;55.188;61.302;2023-08-12T06:05:01;24.11;33.20
74376;HTU21D;62812;55.188;61.302;2023-08-12T06:07:28;24.14;34.47
74376;HTU21D;62812;55.188;61.302;2023-08-12T06:10:31;24.11;33.58
74376;HTU21D;62812;55.188;61.302;2023-08-12T06:12:58;23.95;31.92
74376;HTU21D;62812;55.188;61.302;2023-08-12T06:15:27;23.62;32.60
74376;HTU21D;62812;55.188;61.302;2023-08-12T06:17:57;23.41;31.39
74376;HTU21D;62812;55.188;61.302;2023-08-12T06:20:24;23.30;34.16
74376;HTU21D;62812;55.188;61.302;2023-08-12T06:22:51;23.02;30.62
74376;HTU21D;62812;55.188;61.302;2023-08-12T06:29:47;22.97;30.54
74376;HTU21D;62812;55.188;61.302;2023-08-12T06:33:11;22.90;32.65
74376;HTU21D;62812;55.188;61.302;2023-08-12T06:35:42;22.91;33.77
74376;HTU21D;62812;55.188;61.302;2023-08-12T06:38:15;22.73;32.32
74376;HTU21D;62812;55.188;61.302;2023-08-12T06:40:47;22.70;31.70
74376;HTU21D;62812;55.188;61.302;2023-08-12T06:43:16;22.70;31.38
74376;HTU21D;62812;55.188;61.302;2023-08-12T06:45:43;22.86;33.76
74376;HTU21D;62812;55.188;61.302;2023-08-12T06:48:18;22.80;28.82
74376;HTU21D;62812;55.188;61.302;2023-08-12T06:54:36;22.68;29.10
74376;HTU21D;62812;55.188;61.302;2023-08-12T06:57:04;22.57;29.96
74376;HTU21D;62812;55.188;61.302;2023-08-12T06:59:32;22.39;27.55
74376;HTU21D;62812;55.188;61.302;2023-08-12T07:01:58;22.35;28.16
74376;HTU21D;62812;55.188;61.302;2023-08-12T07:04:26;22.42;28.56
74376;HTU21D;62812;55.188;61.302;2023-08-12T07:07:01;22.34;28.97
74376;HTU21D;62812;55.188;61.302;2023-08-12T07:09:27;22.49;28.79
74376;HTU21D;62812;55.188;61.302;2023-08-12T07:11:58;22.50;28.26
74376;HTU21D;62812;55.188;61.302;2023-08-12T07:14:27;22.54;29.05
74376;HTU21D;62812;55.188;61.302;2023-08-12T07:17:01;22.57;26.83
74376;HTU21D;62812;55.188;61.302;2023-08-12T07:19:39;22.46;28.13
74376;HTU21D;62812;55.188;61.302;2023-08-12T07:22:06;22.42;29.79
74376;HTU21D;62812;55.188;61.302;2023-08-12T07:24:35;22.41;27.48
74376;HTU21D;62812;55.188;61.302;2023-08-12T07:27:02;22.36;29.64
74376;HTU21D;62812;55.188;61.302;2023-08-12T07:29:31;22.42;30.22
74376;HTU21D;62812;55.188;61.302;2023-08-12T07:31:58;22.29;30.35
74376;HTU21D;62812;55.188;61.302;2023-08-12T07:34:26;22.25;28.96
74376;HTU21D;62812;55.188;61.302;2023-08-12T07:36:55;22.32;30.94
74376;HTU21D;62812;55.188;61.302;2023-08-12T07:39:24;22.32;30.09
74376;HTU21D;62812;55.188;61.302;2023-08-12T07:41:51;22.27;30.58
74376;HTU21D;62812;55.188;61.302;2023-08-12T07:44:17;22.46;30.58
74376;HTU21D;62812;55.188;61.302;2023-08-12T07:46:44;22.40;31.42
74376;HTU21D;62812;55.188;61.302;2023-08-12T07:49:12;22.40;32.12
74376;HTU21D;62812;55.188;61.302;2023-08-12T07:51:39;22.38;31.19
74376;HTU21D;62812;55.188;61.302;2023-08-12T07:54:11;22.36;32.99
74376;HTU21D;62812;55.188;61.302;2023-08-12T07:56:38;22.16;31.12
74376;HTU21D;62812;55.188;61.302;2023-08-12T07:59:06;22.19;33.70
74376;HTU21D;62812;55.188;61.302;2023-08-12T08:01:39;22.21;33.21
74376;HTU21D;62812;55.188;61.302;2023-08-12T08:04:08;22.10;33.07
74376;HTU21D;62812;55.188;61.302;2023-08-12T08:06:48;21.97;33.70
74376;HTU21D;62812;55.188;61.302;2023-08-12T08:09:24;22.04;33.43
74376;HTU21D;62812;55.188;61.302;2023-08-12T08:11:51;22.05;34.12
74376;HTU21D;62812;55.188;61.302;2023-08-12T08:14:18;21.87;35.04
74376;HTU21D;62812;55.188;61.302;2023-08-12T08:16:46;21.75;35.54
74376;HTU21D;62812;55.188;61.302;2023-08-12T08:19:15;21.60;35.85
74376;HTU21D;62812;55.188;61.302;2023-08-12T08:21:44;21.64;36.16
74376;HTU21D;62812;55.188;61.302;2023-08-12T08:24:11;21.70;36.11
74376;HTU21D;62812;55.188;61.302;2023-08-12T08:26:42;21.69;36.73
74376;HTU21D;62812;55.188;61.302;2023-08-12T08:29:12;21.81;37.30
74376;HTU21D;62812;55.188;61.302;2023-08-12T08:31:42;21.83;37.05
74376;HTU21D;62812;55.188;61.302;2023-08-12T08:34:09;21.70;37.17
74376;HTU21D;62812;55.188;61.302;2023-08-12T08:36:37;21.88;37.31
74376;HTU21D;62812;55.188;61.302;2023-08-12T08:39:04;22.02;37.06
74376;HTU21D;62812;55.188;61.302;2023-08-12T08:41:33;22.14;36.37
74376;HTU21D;62812;55.188;61.302;2023-08-12T08:44:07;22.22;35.28
74376;HTU21D;62812;55.188;61.302;2023-08-12T08:46:34;22.21;35.31
74376;HTU21D;62812;55.188;61.302;2023-08-12T08:49:01;22.06;36.51
74376;HTU21D;62812;55.188;61.302;2023-08-12T08:51:30;22.10;36.79
74376;HTU21D;62812;55.188;61.302;2023-08-12T08:54:03;22.07;36.21
74376;HTU21D;62812;55.188;61.302;2023-08-12T08:56:33;22.13;36.56
74376;HTU21D;62812;55.188;61.302;2023-08-12T08:59:03;22.17;36.27
74376;HTU21D;62812;55.188;61.302;2023-08-12T09:01:32;22.21;37.31
74376;HTU21D;62812;55.188;61.302;2023-08-12T09:03:59;22.23;36.07
74376;HTU21D;62812;55.188;61.302;2023-08-12T09:06:26;22.14;35.87
74376;HTU21D;62812;55.188;61.302;2023-08-12T09:08:54;22.04;36.33
74376;HTU21D;62812;55.188;61.302;2023-08-12T09:11:21;21.95;36.93
74376;HTU21D;62812;55.188;61.302;2023-08-12T09:13:48;22.07;37.35
74376;HTU21D;62812;55.188;61.302;2023-08-12T09:16:22;22.10;37.43
74376;HTU21D;62812;55.188;61.302;2023-08-12T09:18:55;22.25;37.70
74376;HTU21D;62812;55.188;61.302;2023-08-12T09:21:22;22.32;37.59
74376;HTU21D;62812;55.188;61.302;2023-08-12T09:23:53;22.27;37.43
74376;HTU21D;62812;55.188;61.302;2023-08-12T09:26:21;22.38;37.93
74376;HTU21D;62812;55.188;61.302;2023-08-12T09:28:49;22.40;38.53
74376;HTU21D;62812;55.188;61.302;2023-08-12T09:31:24;22.55;37.81
74376;HTU21D;62812;55.188;61.302;2023-08-12T09:33:57;22.66;38.43
74376;HTU21D;62812;55.188;61.302;2023-08-12T09:36:31;22.73;36.30
74376;HTU21D;62812;55.188;61.302;2023-08-12T09:39:06;22.83;37.09
74376;HTU21D;62812;55.188;61.302;2023-08-12T09:41:35;22.86;35.92
74376;HTU21D;62812;55.188;61.302;2023-08-12T09:44:02;22.87;38.25
74376;HTU21D;62812;55.188;61.302;2023-08-12T09:46:29;22.85;38.76
74376;HTU21D;62812;55.188;61.302;2023-08-12T09:49:03;22.91;38.03
74376;HTU21D;62812;55.188;61.302;2023-08-12T09:51:36;22.87;36.79
74376;HTU21D;62812;55.188;61.302;2023-08-12T09:54:04;22.93;37.40
74376;HTU21D;62812;55.188;61.302;2023-08-12T09:56:36;22.96;36.02
74376;HTU21D;62812;55.188;61.302;2023-08-12T09:59:05;23.08;37.99
74376;HTU21D;62812;55.188;61.302;2023-08-12T10:01:34;22.92;34.89
74376;HTU21D;62812;55.188;61.302;2023-08-12T10:04:08;22.82;35.56
74376;HTU21D;62812;55.188;61.302;2023-08-12T10:06:41;22.92;37.17
74376;HTU21D;62812;55.188;61.302;2023-08-12T10:09:10;22.90;38.26
74376;HTU21D;62812;55.188;61.302;2023-08-12T10:11:53;22.97;37.72
74376;HTU21D;62812;55.188;61.302;2023-08-12T10:15:04;23.00;35.78
74376;HTU21D;62812;55.188;61.302;2023-08-12T10:17:42;23.08;37.35
74376;HTU21D;62812;55.188;61.302;2023-08-12T10:20:36;22.96;36.15
74376;HTU21D;62812;55.188;61.302;2023-08-12T10:23:47;23.05;36.10
74376;HTU21D;62812;55.188;61.302;2023-08-12T10:26:33;23.05;38.95
74376;HTU21D;62812;55.188;61.302;2023-08-12T10:29:38;23.13;39.11
74376;HTU21D;62812;55.188;61.302;2023-08-12T10:32:30;23.11;36.21
74376;HTU21D;62812;55.188;61.302;2023-08-12T10:34:59;22.97;36.05
74376;HTU21D;62812;55.188;61.302;2023-08-12T10:37:30;22.85;36.67
74376;HTU21D;62812;55.188;61.302;2023-08-12T10:40:03;22.82;38.73
74376;HTU21D;62812;55.188;61.302;2023-08-12T10:42:43;22.92;38.33
74376;HTU21D;62812;55.188;61.302;2023-08-12T10:45:12;22.95;37.64
74376;HTU21D;62812;55.188;61.302;2023-08-12T10:47:40;22.98;36.41
74376;HTU21D;62812;55.188;61.302;2023-08-12T10:50:17;22.99;36.25
74376;HTU21D;62812;55.188;61.302;2023-08-12T10:52:50;23.05;37.98
74376;HTU21D;62812;55.188;61.302;2023-08-12T10:55:22;23.07;38.46
74376;HTU21D;62812;55.188;61.302;2023-08-12T10:57:49;23.12;35.09
74376;HTU21D;62812;55.188;61.302;2023-08-12T11:00:18;23.16;36.15
74376;HTU21D;62812;55.188;61.302;2023-08-12T11:02:52;23.23;37.73
74376;HTU21D;62812;55.188;61.302;2023-08-12T11:06:00;23.17;35.82
74376;HTU21D;62812;55.188;61.302;2023-08-12T11:09:11;23.10;36.05
74376;HTU21D;62812;55.188;61.302;2023-08-12T11:12:02;23.14;36.39
74376;HTU21D;62812;55.188;61.302;2023-08-12T11:14:56;23.14;37.36
74376;HTU21D;62812;55.188;61.302;2023-08-12T11:17:33;22.92;36.56
74376;HTU21D;62812;55.188;61.302;2023-08-12T11:20:06;22.86;34.85
74376;HTU21D;62812;55.188;61.302;2023-08-12T11:22:46;22.78;36.82
74376;HTU21D;62812;55.188;61.302;2023-08-12T11:25:50;22.93;38.39
74376;HTU21D;62812;55.188;61.302;2023-08-12T11:28:34;23.01;37.10
74376;HTU21D;62812;55.188;61.302;2023-08-12T11:31:18;23.13;35.99
74376;HTU21D;62812;55.188;61.302;2023-08-12T11:33:55;23.18;36.02
74376;HTU21D;62812;55.188;61.302;2023-08-12T11:36:28;23.18;36.36
74376;HTU21D;62812;55.188;61.302;2023-08-12T11:38:58;23.22;35.30
74376;HTU21D;62812;55.188;61.302;2023-08-12T11:41:33;23.14;35.23
74376;HTU21D;62812;55.188;61.302;2023-08-12T11:44:00;23.22;35.58
74376;HTU21D;62812;55.188;61.302;2023-08-12T11:46:27;23.28;38.79
74376;HTU21D;62812;55.188;61.302;2023-08-12T11:48:57;23.30;34.70
74376;HTU21D;62812;55.188;61.302;2023-08-12T11:51:26;23.24;34.42
74376;HTU21D;62812;55.188;61.302;2023-08-12T11:53:53;23.15;35.79
74376;HTU21D;62812;55.188;61.302;2023-08-12T11:56:24;23.14;35.44
74376;HTU21D;62812;55.188;61.302;2023-08-12T11:58:54;23.23;36.91
74376;HTU21D;62812;55.188;61.302;2023-08-12T12:01:25;23.20;34.93
74376;HTU21D;62812;55.188;61.302;2023-08-12T12:07:33;23.14;37.79
74376;HTU21D;62812;55.188;61.302;2023-08-12T12:10:01;23.14;35.41
74376;HTU21D;62812;55.188;61.302;2023-08-12T12:12:29;23.21;36.57
74376;HTU21D;62812;55.188;61.302;2023-08-12T12:15:04;23.22;36.97
74376;HTU21D;62812;55.188;61.302;2023-08-12T12:17:42;23.18;34.70
74376;HTU21D;62812;55.188;61.302;2023-08-12T12:20:12;23.16;36.73
74376;HTU21D;62812;55.188;61.302;2023-08-12T12:23:07;23.21;35.50
74376;HTU21D;62812;55.188;61.302;2023-08-12T12:25:41;23.17;35.24
74376;HTU21D;62812;55.188;61.302;2023-08-12T12:28:11;23.08;34.01
74376;HTU21D;62812;55.188;61.302;2023-08-12T12:30:43;23.02;34.88
74376;HTU21D;62812;55.188;61.302;2023-08-12T12:33:10;23.06;35.84
74376;HTU21D;62812;55.188;61.302;2023-08-12T12:35:37;23.10;34.60
74376;HTU21D;62812;55.188;61.302;2023-08-12T12:38:05;23.13;35.21
74376;HTU21D;62812;55.188;61.302;2023-08-12T12:40:31;23.15;36.39
74376;HTU21D;62812;55.188;61.302;2023-08-12T12:43:00;22.95;33.38
74376;HTU21D;62812;55.188;61.302;2023-08-12T12:45:29;22.90;33.96
74376;HTU21D;62812;55.188;61.302;2023-08-12T12:47:57;22.90;37.30
74376;HTU21D;62812;55.188;61.302;2023-08-12T12:50:27;22.92;37.67
74376;HTU21D;62812;55.188;61.302;2023-08-12T12:52:55;23.10;34.83
74376;HTU21D;62812;55.188;61.302;2023-08-12T12:55:22;23.07;37.49
74376;HTU21D;62812;55.188;61.302;2023-08-12T12:57:50;23.10;44.90
74376;HTU21D;62812;55.188;61.302;2023-08-12T13:00:42;23.41;33.56
74376;HTU21D;62812;55.188;61.302;2023-08-12T13:03:14;23.57;44.77
74376;HTU21D;62812;55.188;61.302;2023-08-12T13:05:52;23.62;39.52
74376;HTU21D;62812;55.188;61.302;2023-08-12T13:08:29;23.54;39.91
74376;HTU21D;62812;55.188;61.302;2023-08-12T13:10:58;23.65;32.89
74376;HTU21D;62812;55.188;61.302;2023-08-12T13:13:25;23.88;44.63
74376;HTU21D;62812;55.188;61.302;2023-08-12T13:15:52;23.96;42.39
74376;HTU21D;62812;55.188;61.302;2023-08-12T13:18:23;23.70;37.25
74376;HTU21D;62812;55.188;61.302;2023-08-12T13:20:50;23.68;33.22
74376;HTU21D;62812;55.188;61.302;2023-08-12T13:23:21;23.91;44.19
74376;HTU21D;62812;55.188;61.302;2023-08-12T13:25:48;23.90;32.81
74376;HTU21D;62812;55.188;61.302;2023-08-12T13:28:16;23.46;33.42
74376;HTU21D;62812;55.188;61.302;2023-08-12T13:30:46;23.02;36.57
74376;HTU21D;62812;55.188;61.302;2023-08-12T13:33:27;22.92;34.27
74376;HTU21D;62812;55.188;61.302;2023-08-12T13:35:55;23.03;45.09
74376;HTU21D;62812;55.188;61.302;2023-08-12T13:38:23;22.90;40.61
74376;HTU21D;62812;55.188;61.302;2023-08-12T13:40:49;23.35;34.53
74376;HTU21D;62812;55.188;61.302;2023-08-12T13:43:17;23.42;43.42
74376;HTU21D;62812;55.188;61.302;2023-08-12T13:45:45;23.14;39.58
74376;HTU21D;62812;55.188;61.302;2023-08-12T13:48:12;23.05;34.13
74376;HTU21D;62812;55.188;61.302;2023-08-12T13:50:43;22.90;36.21
74376;HTU21D;62812;55.188;61.302;2023-08-12T13:53:17;23.12;43.03
74376;HTU21D;62812;55.188;61.302;2023-08-12T13:55:52;22.93;38.41
74376;HTU21D;62812;55.188;61.302;2023-08-12T13:58:42;22.71;37.92
74376;HTU21D;62812;55.188;61.302;2023-08-12T14:01:29;22.83;40.99
74376;HTU21D;62812;55.188;61.302;2023-08-12T14:03:58;22.90;38.85
74376;HTU21D;62812;55.188;61.302;2023-08-12T14:06:29;22.93;36.30
74376;HTU21D;62812;55.188;61.302;2023-08-12T14:08:55;22.93;36.61
74376;HTU21D;62812;55.188;61.302;2023-08-12T14:11:26;22.93;39.08
74376;HTU21D;62812;55.188;61.302;2023-08-12T14:13:53;22.85;37.43
74376;HTU21D;62812;55.188;61.302;2023-08-12T14:16:21;22.81;37.27
74376;HTU21D;62812;55.188;61.302;2023-08-12T14:18:49;22.81;35.63
74376;HTU21D;62812;55.188;61.302;2023-08-12T14:21:37;22.77;37.26
74376;HTU21D;62812;55.188;61.302;2023-08-12T14:24:04;22.64;34.67
74376;HTU21D;62812;55.188;61.302;2023-08-12T14:26:31;22.51;34.31
74376;HTU21D;62812;55.188;61.302;2023-08-12T14:28:58;22.44;34.24
74376;HTU21D;62812;55.188;61.302;2023-08-12T14:31:34;22.43;34.82
74376;HTU21D;62812;55.188;61.302;2023-08-12T14:34:01;22.38;35.47
74376;HTU21D;62812;55.188;61.302;2023-08-12T14:36:30;22.27;34.42
74376;HTU21D;62812;55.188;61.302;2023-08-12T14:39:19;22.18;34.81
74376;HTU21D;62812;55.188;61.302;2023-08-12T14:41:47;22.10;34.99
74376;HTU21D;62812;55.188;61.302;2023-08-12T14:44:14;22.06;35.16
74376;HTU21D;62812;55.188;61.302;2023-08-12T14:46:42;22.04;37.62
74376;HTU21D;62812;55.188;61.302;2023-08-12T14:49:09;21.98;36.37
74376;HTU21D;62812;55.188;61.302;2023-08-12T14:51:36;21.93;36.38
74376;HTU21D;62812;55.188;61.302;2023-08-12T14:54:03;21.88;38.98
74376;HTU21D;62812;55.188;61.302;2023-08-12T14:56:32;21.88;36.79
74376;HTU21D;62812;55.188;61.302;2023-08-12T14:59:00;21.82;37.94
74376;HTU21D;62812;55.188;61.302;2023-08-12T15:01:28;21.87;37.56
74376;HTU21D;62812;55.188;61.302;2023-08-12T15:03:55;21.87;37.24
74376;HTU21D;62812;55.188;61.302;2023-08-12T15:06:22;21.80;37.99
74376;HTU21D;62812;55.188;61.302;2023-08-12T15:08:49;21.77;38.33
74376;HTU21D;62812;55.188;61.302;2023-08-12T15:11:16;21.78;38.96
74376;HTU21D;62812;55.188;61.302;2023-08-12T15:13:45;21.73;37.85
74376;HTU21D;62812;55.188;61.302;2023-08-12T15:16:11;21.64;36.43
74376;HTU21D;62812;55.188;61.302;2023-08-12T15:18:39;21.51;38.01
74376;HTU21D;62812;55.188;61.302;2023-08-12T15:21:25;21.38;39.02
74376;HTU21D;62812;55.188;61.302;2023-08-12T15:23:52;21.39;37.59
74376;HTU21D;62812;55.188;61.302;2023-08-12T15:26:25;21.39;39.12
74376;HTU21D;62812;55.188;61.302;2023-08-12T15:28:55;21.40;38.53
74376;HTU21D;62812;55.188;61.302;2023-08-12T15:31:23;21.35;39.40
74376;HTU21D;62812;55.188;61.302;2023-08-12T15:33:52;21.34;39.05
74376;HTU21D;62812;55.188;61.302;2023-08-12T15:36:20;21.31;38.99
74376;HTU21D;62812;55.188;61.302;2023-08-12T15:38:49;21.29;37.78
74376;HTU21D;62812;55.188;61.302;2023-08-12T15:41:16;21.15;38.07